Time;durP1;ratioP1;P1;durP2;ratioP2;P2;SDS_P1;SDS_P2;PMS_P1;PMS_P2;Temp;Humidity;BMP_temperature;BMP_pressure;BME280_temperature;BME280_humidity;BME280_pressure;Samples;Min_cycle;Max_cycle;Signal;HPM_P1;HPM_P2
2022/07/13 00:01:25;;;;;;;6.63;3.70;;;;;;;19.56;100.00;95102.38;4983740;28;20129;-87
2022/07/13 00:03:51;;;;;;;7.07;3.25;;;;;;;19.86;100.00;95097.31;4983938;28;20034;-87
2022/07/13 00:06:18;;;;;;;6.07;3.03;;;;;;;19.84;100.00;95106.69;4967364;28;20223;-87
2022/07/13 00:08:43;;;;;;;5.53;3.00;;;;;;;19.81;100.00;95104.66;4967618;28;20034;-88
2022/07/13 00:11:11;;;;;;;8.25;2.95;;;;;;;19.94;100.00;95105.66;4983583;28;20436;-87
2022/07/13 00:13:36;;;;;;;4.32;3.45;;;;;;;19.95;100.00;95102.69;4967494;28;20344;-87
2022/07/13 00:16:02;;;;;;;10.55;3.50;;;;;;;19.73;100.00;95103.53;4983591;28;20038;-88
2022/07/13 00:18:28;;;;;;;6.20;3.50;;;;;;;19.36;100.00;95099.16;4983390;28;20042;-88
2022/07/13 00:20:53;;;;;;;8.85;3.60;;;;;;;19.13;100.00;95109.03;4983142;28;20031;-88
2022/07/13 00:23:19;;;;;;;5.78;3.22;;;;;;;19.52;100.00;95096.13;4982796;28;20037;-87
2022/07/13 00:25:44;;;;;;;5.47;3.40;;;;;;;19.75;100.00;95104.00;4983039;28;20038;-87
2022/07/13 00:28:10;;;;;;;7.57;3.38;;;;;;;19.75;100.00;95107.47;4966920;28;20073;-88
2022/07/13 00:30:35;;;;;;;8.63;3.70;;;;;;;19.49;100.00;95105.47;4983059;28;20044;-87
2022/07/13 00:33:05;;;;;;;6.93;3.53;;;;;;;19.53;100.00;95102.19;4967135;28;20026;-88
2022/07/13 00:35:39;;;;;;;4.75;3.53;;;;;;;19.44;100.00;95105.63;4966983;28;20050;-87
2022/07/13 00:38:05;;;;;;;8.68;3.45;;;;;;;19.49;100.00;95110.78;4982990;28;20033;-87
2022/07/13 00:40:30;;;;;;;10.02;4.05;;;;;;;19.79;100.00;95118.25;4983098;28;20030;-88
2022/07/13 00:42:57;;;;;;;7.95;3.30;;;;;;;19.64;100.00;95112.25;5000004;28;20069;-88
2022/07/13 00:45:23;;;;;;;8.25;3.65;;;;;;;19.10;100.00;95116.84;4967478;28;20023;-87
2022/07/13 00:47:57;;;;;;;8.57;3.63;;;;;;;19.07;100.00;95115.56;4980285;28;20037;-87
2022/07/13 00:50:25;;;;;;;12.45;4.05;;;;;;;18.93;100.00;95115.56;4982829;28;20045;-88
2022/07/13 00:52:51;;;;;;;10.50;6.38;;;;;;;18.86;100.00;95113.34;4957568;28;20026;-87
2022/07/13 00:55:16;;;;;;;10.60;3.50;;;;;;;19.03;100.00;95117.25;4973350;28;20038;-87
2022/07/13 00:57:42;;;;;;;12.13;3.75;;;;;;;19.06;100.00;95106.78;4947604;28;20097;-87
2022/07/13 01:00:10;;;;;;;6.90;4.00;;;;;;;18.87;100.00;95116.81;4980536;28;20191;-87
2022/07/13 01:02:37;;;;;;;8.63;3.72;;;;;;;19.15;100.00;95119.34;4947639;28;20031;-87
2022/07/13 01:05:02;;;;;;;13.43;3.78;;;;;;;19.04;100.00;95116.94;4962955;28;20026;-87
2022/07/13 01:07:30;;;;;;;11.35;3.95;;;;;;;18.70;100.00;95115.59;4962368;28;20035;-88
2022/07/13 01:09:55;;;;;;;9.02;4.20;;;;;;;18.34;100.00;95119.81;4962989;28;20027;-87
2022/07/13 01:12:21;;;;;;;10.45;4.22;;;;;;;18.24;100.00;95122.66;4979535;28;20037;-87
2022/07/13 01:14:47;;;;;;;7.68;4.05;;;;;;;18.45;100.00;95124.91;4947119;28;20042;-88
2022/07/13 01:17:12;;;;;;;6.05;4.15;;;;;;;18.41;100.00;95123.91;4980268;28;20045;-87
2022/07/13 01:19:38;;;;;;;7.07;3.78;;;;;;;18.50;100.00;95124.78;4963090;28;20435;-87
2022/07/13 01:22:04;;;;;;;11.20;4.20;;;;;;;18.77;100.00;95137.19;4962968;28;20070;-87
2022/07/13 01:24:30;;;;;;;13.25;4.50;;;;;;;18.85;100.00;95134.91;4962875;28;20030;-87
2022/07/13 01:26:56;;;;;;;9.15;3.50;;;;;;;18.88;100.00;95124.47;4962908;28;20045;-87
2022/07/13 01:29:22;;;;;;;9.18;4.22;;;;;;;18.49;100.00;95134.59;4962923;28;20027;-87
2022/07/13 01:31:47;;;;;;;5.82;3.90;;;;;;;18.79;100.00;95128.91;4946851;28;20044;-87
2022/07/13 01:34:18;;;;;;;6.10;3.83;;;;;;;18.91;100.00;95123.06;4962701;28;20042;-88
2022/07/13 01:36:43;;;;;;;6.32;3.83;;;;;;;18.94;100.00;95127.78;4963197;28;20435;-87
2022/07/13 01:39:09;;;;;;;7.20;4.55;;;;;;;18.30;100.00;95118.84;4946630;28;20069;-87
2022/07/13 01:41:35;;;;;;;6.82;4.07;;;;;;;18.18;100.00;95121.22;4962474;28;20034;-87
2022/07/13 01:44:00;;;;;;;6.47;3.92;;;;;;;18.39;100.00;95118.13;4962478;28;20022;-87
2022/07/13 01:46:26;;;;;;;10.95;4.03;;;;;;;18.63;100.00;95117.84;4962353;28;20335;-87
2022/07/13 01:48:54;;;;;;;7.00;4.30;;;;;;;18.40;100.00;95114.38;4962526;28;20376;-87
2022/07/13 01:51:19;;;;;;;6.88;4.57;;;;;;;18.23;100.00;95119.25;4946349;28;20428;-88
2022/07/13 01:53:45;;;;;;;11.80;4.60;;;;;;;17.96;100.00;95120.03;4962084;28;20061;-87
2022/07/13 01:56:13;;;;;;;6.25;4.35;;;;;;;18.06;100.00;95119.06;4962465;28;20037;-87
2022/07/13 01:58:39;;;;;;;7.70;4.10;;;;;;;18.40;100.00;95123.16;4979606;28;20049;-88
2022/07/13 02:01:05;;;;;;;6.25;4.18;;;;;;;18.53;100.00;95120.75;4962344;28;20039;-87
2022/07/13 02:03:31;;;;;;;5.18;3.45;;;;;;;18.57;100.00;95124.38;4946292;28;20058;-87
2022/07/13 02:05:58;;;;;;;8.35;3.83;;;;;;;18.74;100.00;95121.09;4946455;28;20145;-87
2022/07/13 02:08:24;;;;;;;8.60;4.00;;;;;;;18.16;100.00;95126.81;4946278;28;20030;-87
2022/07/13 02:10:49;;;;;;;8.68;3.90;;;;;;;18.44;100.00;95118.03;4961892;28;20373;-87
2022/07/13 02:13:15;;;;;;;9.68;4.50;;;;;;;18.24;100.00;95122.66;4961832;28;20093;-87
2022/07/13 02:15:43;;;;;;;10.02;4.20;;;;;;;18.00;100.00;95128.19;4962049;28;20038;-87
2022/07/13 02:18:09;;;;;;;11.55;4.70;;;;;;;17.85;100.00;95116.00;4944816;28;20070;-87
2022/07/13 02:20:38;;;;;;;8.90;4.40;;;;;;;18.13;100.00;95119.47;4945873;28;20108;-87
2022/07/13 02:23:03;;;;;;;7.50;4.45;;;;;;;18.36;100.00;95122.94;4945759;28;20443;-87
2022/07/13 02:25:29;;;;;;;8.98;4.13;;;;;;;18.46;100.00;95116.63;4945774;28;20133;-86
2022/07/13 02:27:54;;;;;;;8.00;3.53;;;;;;;18.47;100.00;95120.84;4978451;28;20030;-87
2022/07/13 02:30:20;;;;;;;10.30;4.38;;;;;;;18.50;100.00;95119.47;4961411;28;20081;-87
2022/07/13 02:32:46;;;;;;;8.70;4.00;;;;;;;18.61;100.00;95112.88;4961607;28;20045;-87
2022/07/13 02:35:12;;;;;;;12.15;4.18;;;;;;;18.55;100.00;95115.94;4945623;28;20034;-87
2022/07/13 02:37:38;;;;;;;10.40;4.03;;;;;;;18.27;100.00;95118.66;4961510;28;20077;-87
2022/07/13 02:40:05;;;;;;;7.82;3.88;;;;;;;18.53;100.00;95118.09;4945611;28;20057;-87
2022/07/13 02:42:31;;;;;;;6.38;3.88;;;;;;;18.57;100.00;95122.50;4945411;28;20034;-87
2022/07/13 02:44:56;;;;;;;13.00;4.50;;;;;;;18.44;100.00;95113.50;4961501;28;20038;-87
2022/07/13 02:47:22;;;;;;;12.15;4.03;;;;;;;18.22;100.00;95111.59;4983726;28;20034;-87
2022/07/13 02:49:48;;;;;;;10.65;4.65;;;;;;;18.31;100.00;95119.63;4986862;28;20062;-88
2022/07/13 02:52:13;;;;;;;12.18;3.85;;;;;;;18.50;100.00;95114.19;4971285;28;20029;-87
2022/07/13 02:54:39;;;;;;;12.25;4.10;;;;;;;18.51;100.00;95119.19;4961973;28;20077;-87
2022/07/13 02:57:07;;;;;;;12.00;4.30;;;;;;;18.35;100.00;95117.94;4980955;28;20033;-87
2022/07/13 02:59:33;;;;;;;11.10;4.53;;;;;;;18.09;100.00;95113.94;4980821;28;20446;-87
2022/07/13 03:02:01;;;;;;;13.90;4.63;;;;;;;17.98;100.00;95123.16;4964755;28;20026;-87
2022/07/13 03:04:27;;;;;;;7.55;4.13;;;;;;;18.12;100.00;95120.53;4980461;28;20023;-87
2022/07/13 03:06:52;;;;;;;9.43;4.00;;;;;;;18.02;100.00;95118.06;4980287;28;20388;-87
2022/07/13 03:09:18;;;;;;;8.85;3.80;;;;;;;18.29;100.00;95124.44;4980416;28;20483;-87
2022/07/13 03:11:43;;;;;;;12.13;5.10;;;;;;;17.99;100.00;95119.44;4980469;28;20038;-87
2022/07/13 03:14:09;;;;;;;11.10;4.50;;;;;;;17.62;100.00;95126.50;4964128;28;20100;-87
2022/07/13 03:16:34;;;;;;;11.88;4.57;;;;;;;17.51;100.00;95126.69;4998059;28;20042;-87
2022/07/13 03:19:00;;;;;;;10.82;4.57;;;;;;;17.73;100.00;95121.78;4980222;28;20428;-87
2022/07/13 03:21:28;;;;;;;6.25;3.88;;;;;;;18.00;100.00;95126.28;4964079;28;20034;-87
2022/07/13 03:23:53;;;;;;;11.85;4.38;;;;;;;18.09;100.00;95124.56;4980214;28;20030;-87
2022/07/13 03:26:18;;;;;;;6.95;4.20;;;;;;;17.81;100.00;95121.13;4980089;28;20042;-87
2022/07/13 03:28:45;;;;;;;12.75;4.60;;;;;;;17.75;100.00;95130.22;4980310;28;20034;-87
2022/07/13 03:31:10;;;;;;;9.52;4.78;;;;;;;17.75;100.00;95130.22;4984536;28;20041;-87
2022/07/13 03:33:36;;;;;;;11.73;4.75;;;;;;;18.10;100.00;95120.06;4967996;28;20034;-87
2022/07/13 03:36:01;;;;;;;12.88;5.05;;;;;;;17.90;100.00;95132.59;5001487;28;20424;-87
2022/07/13 03:38:26;;;;;;;7.72;4.50;;;;;;;18.12;100.00;95133.00;4999338;28;20045;-87
2022/07/13 03:40:52;;;;;;;11.77;5.13;;;;;;;17.98;100.00;95139.06;4967936;28;20056;-84
2022/07/13 03:43:17;;;;;;;9.13;4.57;;;;;;;18.04;100.00;95140.56;5001045;28;20427;-84
2022/07/13 03:45:43;;;;;;;10.55;4.82;;;;;;;17.85;100.00;95140.66;4983655;28;20042;-84
2022/07/13 03:48:08;;;;;;;8.02;4.45;;;;;;;18.20;100.00;95140.28;4983794;28;20045;-84
2022/07/13 03:50:33;;;;;;;7.47;4.68;;;;;;;18.33;100.00;95143.97;4983494;28;20034;-84
2022/07/13 03:52:59;;;;;;;6.68;4.53;;;;;;;18.30;100.00;95144.56;4967452;28;20049;-83
2022/07/13 03:55:24;;;;;;;7.30;4.30;;;;;;;18.42;100.00;95152.00;4983687;28;20089;-84
2022/07/13 03:57:50;;;;;;;9.55;4.45;;;;;;;18.49;100.00;95158.47;5001081;28;20042;-84
2022/07/13 04:00:15;;;;;;;9.15;4.78;;;;;;;18.31;100.00;95162.06;5000641;28;20069;-84
2022/07/13 04:02:41;;;;;;;8.55;4.85;;;;;;;17.86;100.00;95168.72;5000489;28;20455;-84
2022/07/13 04:05:06;;;;;;;9.27;4.72;;;;;;;17.76;100.00;95168.91;4983345;28;20429;-83
2022/07/13 04:07:32;;;;;;;8.48;5.05;;;;;;;17.83;100.00;95176.47;4983529;28;20096;-84
2022/07/13 04:09:58;;;;;;;6.85;4.47;;;;;;;18.18;100.00;95163.66;4983493;28;20042;-84
2022/07/13 04:12:24;;;;;;;13.10;5.10;;;;;;;17.97;100.00;95171.19;4983158;28;20045;-84
2022/07/13 04:14:49;;;;;;;10.82;5.60;;;;;;;17.83;100.00;95177.25;5000400;28;20045;-84
2022/07/13 04:17:15;;;;;;;12.43;5.82;;;;;;;17.89;100.00;95178.72;4983328;28;20044;-84
2022/07/13 04:19:40;;;;;;;12.02;5.80;;;;;;;18.07;100.00;95182.41;4982972;28;20040;-84
2022/07/13 04:22:06;;;;;;;12.57;5.15;;;;;;;18.31;100.00;95178.78;5000609;28;20096;-84
2022/07/13 04:24:31;;;;;;;6.78;4.30;;;;;;;18.40;100.00;95176.19;5000414;28;20491;-84
2022/07/13 04:26:56;;;;;;;9.18;4.50;;;;;;;18.60;100.00;95172.34;5000505;28;20042;-84
2022/07/13 04:29:22;;;;;;;13.63;4.50;;;;;;;18.48;100.00;95180.78;5000105;28;20038;-84
2022/07/13 04:31:47;;;;;;;9.90;4.90;;;;;;;18.01;100.00;95177.47;5000483;28;20092;-83
2022/07/13 04:34:13;;;;;;;12.73;5.30;;;;;;;17.81;100.00;95187.38;4982618;28;20081;-83
2022/07/13 04:36:42;;;;;;;13.57;5.60;;;;;;;17.86;100.00;95184.63;4982745;28;20070;-84
2022/07/13 04:39:07;;;;;;;12.60;5.35;;;;;;;17.90;100.00;95193.56;4982854;28;20038;-84
2022/07/13 04:41:32;;;;;;;16.05;5.55;;;;;;;18.03;100.00;95180.63;4981860;28;20392;-84
2022/07/13 04:43:58;;;;;;;9.02;5.60;;;;;;;18.14;100.00;95189.97;4982663;28;20092;-84
2022/07/13 04:46:25;;;;;;;9.65;5.22;;;;;;;18.41;100.00;95195.53;4966706;28;20056;-85
2022/07/13 04:48:50;;;;;;;8.35;4.18;;;;;;;18.69;100.00;95196.28;5000157;28;20081;-84
2022/07/13 04:51:15;;;;;;;11.23;5.05;;;;;;;18.75;100.00;95191.66;5000120;28;20038;-84
2022/07/13 04:53:41;;;;;;;10.18;5.28;;;;;;;18.85;100.00;95196.72;4999593;28;20351;-83
2022/07/13 04:56:07;;;;;;;7.20;4.60;;;;;;;18.51;100.00;95206.75;4982665;28;20119;-84
2022/07/13 04:58:32;;;;;;;11.93;4.43;;;;;;;18.53;100.00;95205.66;4982052;28;20038;-84
2022/07/13 05:01:00;;;;;;;10.00;4.30;;;;;;;18.60;100.00;95206.84;4999892;28;20050;-84
2022/07/13 05:03:26;;;;;;;6.57;3.83;;;;;;;18.82;100.00;95212.50;4999092;28;20053;-84
2022/07/13 05:05:51;;;;;;;7.28;3.92;;;;;;;19.13;100.00;95215.25;4982055;28;20030;-83
2022/07/13 05:08:17;;;;;;;10.13;4.43;;;;;;;19.22;100.00;95217.97;4965970;28;20072;-84
2022/07/13 05:10:42;;;;;;;8.52;4.18;;;;;;;19.24;100.00;95218.50;4982346;28;20371;-83
2022/07/13 05:13:08;;;;;;;7.03;3.88;;;;;;;18.89;100.00;95221.63;4982048;28;20042;-84
2022/07/13 05:15:33;;;;;;;8.73;3.97;;;;;;;19.29;100.00;95226.31;4982364;28;20061;-83
2022/07/13 05:17:59;;;;;;;11.27;4.68;;;;;;;19.10;100.00;95223.06;4966070;28;20041;-84
2022/07/13 05:20:24;;;;;;;7.70;3.97;;;;;;;19.26;100.00;95226.13;4999530;28;20443;-84
2022/07/13 05:22:49;;;;;;;9.90;4.40;;;;;;;19.46;100.00;95230.97;4999066;28;20041;-84
2022/07/13 05:25:15;;;;;;;5.65;3.85;;;;;;;19.59;100.00;95229.34;4981695;28;20030;-84
2022/07/13 05:27:40;;;;;;;14.90;4.20;;;;;;;19.63;100.00;95229.53;4982272;28;20034;-84
2022/07/13 05:30:06;;;;;;;5.63;3.70;;;;;;;19.58;100.00;95238.41;4999363;28;20040;-84
2022/07/13 05:32:32;;;;;;;9.80;3.85;;;;;;;19.78;100.00;95239.78;4999585;28;20073;-84
2022/07/13 05:34:57;;;;;;;8.13;4.00;;;;;;;19.49;100.00;95240.22;4999212;28;20416;-84
2022/07/13 05:37:22;;;;;;;10.20;3.70;;;;;;;19.70;100.00;95237.06;4981446;28;20033;-84
2022/07/13 05:39:48;;;;;;;9.75;4.00;;;;;;;19.26;100.00;95242.88;4981532;28;20065;-84
2022/07/13 05:42:14;;;;;;;7.07;4.38;;;;;;;19.41;100.00;95244.38;4999182;28;20451;-84
2022/07/13 05:44:40;;;;;;;11.43;4.70;;;;;;;19.18;100.00;95252.34;4981558;28;20039;-84
2022/07/13 05:47:05;;;;;;;7.35;4.47;;;;;;;19.26;100.00;95253.50;4986539;28;20065;-84
2022/07/13 05:49:31;;;;;;;8.13;5.00;;;;;;;19.59;100.00;95247.94;4987347;28;20344;-84
2022/07/13 05:51:56;;;;;;;9.57;4.00;;;;;;;19.87;100.00;95250.44;4995075;28;20041;-84
2022/07/13 05:54:22;;;;;;;11.27;4.82;;;;;;;19.70;100.00;95261.00;4979425;28;20428;-84
2022/07/13 05:56:47;;;;;;;10.43;4.40;;;;;;;20.09;100.00;95256.06;5004268;28;20036;-84
2022/07/13 05:59:17;;;;;;;9.20;4.82;;;;;;;20.04;100.00;95259.63;4995395;28;20128;-84
2022/07/13 06:01:42;;;;;;;8.35;4.07;;;;;;;20.40;100.00;95258.69;4981126;28;20344;-84
2022/07/13 06:04:08;;;;;;;10.05;4.18;;;;;;;20.71;100.00;95254.38;4998308;28;20052;-84
2022/07/13 06:06:33;;;;;;;8.27;4.03;;;;;;;20.69;100.00;95260.03;4998370;28;20049;-84
2022/07/13 06:08:58;;;;;;;5.57;4.10;;;;;;;20.88;100.00;95264.31;4973896;28;20042;-84
2022/07/13 06:11:24;;;;;;;7.38;4.10;;;;;;;20.95;100.00;95269.19;4978989;28;20026;-84
2022/07/13 06:13:49;;;;;;;9.40;4.03;;;;;;;21.20;100.00;95262.28;4961393;28;20058;-84
2022/07/13 06:16:15;;;;;;;4.63;3.20;;;;;;;21.30;100.00;95264.66;4979020;28;20113;-85
2022/07/13 06:18:40;;;;;;;9.73;3.85;;;;;;;21.08;100.00;95270.91;4961475;28;20038;-84
2022/07/13 06:21:06;;;;;;;6.72;4.00;;;;;;;21.27;100.00;95270.63;4961632;28;20066;-84
2022/07/13 06:23:31;;;;;;;6.63;3.65;;;;;;;21.30;100.00;95269.19;4978679;28;20046;-85
2022/07/13 06:25:58;;;;;;;10.50;4.05;;;;;;;21.54;100.00;95267.94;4961328;28;20034;-85
2022/07/13 06:28:23;;;;;;;8.10;3.67;;;;;;;21.00;100.00;95277.81;4961886;28;20045;-84
2022/07/13 06:30:49;;;;;;;7.60;3.60;;;;;;;21.42;100.00;95284.56;4978700;28;20030;-85
2022/07/13 06:33:14;;;;;;;9.18;3.65;;;;;;;21.84;100.00;95282.19;4977377;28;20081;-85
2022/07/13 06:35:40;;;;;;;7.18;3.47;;;;;;;21.70;100.00;95286.94;4978482;28;20030;-86
2022/07/13 06:38:05;;;;;;;8.52;3.60;;;;;;;21.67;100.00;95288.34;4978612;28;20113;-84
2022/07/13 06:40:30;;;;;;;8.68;3.38;;;;;;;21.57;100.00;95281.41;4978380;28;20069;-85
2022/07/13 06:42:56;;;;;;;9.02;3.60;;;;;;;21.81;100.00;95290.03;4960965;28;20037;-85
2022/07/13 06:45:22;;;;;;;7.18;3.60;;;;;;;21.95;100.00;95287.97;4961021;28;20039;-85
2022/07/13 06:47:48;;;;;;;5.20;3.58;;;;;;;22.09;100.00;95290.44;4978573;28;20392;-85
2022/07/13 06:50:13;;;;;;;5.72;3.85;;;;;;;21.80;100.00;95291.91;4977278;28;20356;-85
2022/07/13 06:52:40;;;;;;;5.78;3.00;;;;;;;22.38;100.00;95288.16;4961122;28;20042;-85
2022/07/13 06:55:07;;;;;;;6.90;2.83;;;;;;;22.56;100.00;95291.56;4961324;28;20053;-85
2022/07/13 06:57:33;;;;;;;6.85;3.08;;;;;;;22.93;100.00;95297.16;4961284;28;20399;-85
2022/07/13 06:59:58;;;;;;;5.30;2.65;;;;;;;22.62;100.00;95298.28;4960863;28;20039;-85
2022/07/13 07:02:23;;;;;;;11.32;2.80;;;;;;;22.74;100.00;95290.38;4978324;28;20042;-84
2022/07/13 07:04:49;;;;;;;5.13;2.63;;;;;;;22.82;100.00;95293.34;4960296;28;20070;-84
2022/07/13 07:07:14;;;;;;;3.42;2.55;;;;;;;22.90;100.00;95294.38;4960661;28;20034;-85
2022/07/13 07:09:40;;;;;;;12.45;2.53;;;;;;;22.94;100.00;95295.28;4960954;28;20038;-85
2022/07/13 07:12:05;;;;;;;5.25;2.90;;;;;;;22.98;100.00;95299.66;4960691;28;20050;-84
2022/07/13 07:14:32;;;;;;;3.20;2.00;;;;;;;22.76;100.00;95292.72;4977705;28;20034;-85
2022/07/13 07:16:59;;;;;;;5.13;2.20;;;;;;;23.20;100.00;95297.78;4978108;28;20042;-84
2022/07/13 07:19:24;;;;;;;5.75;1.90;;;;;;;22.78;100.00;95297.72;4960658;28;20133;-86
2022/07/13 07:21:49;;;;;;;4.00;1.55;;;;;;;22.75;100.00;95291.16;4960522;28;20046;-84
2022/07/13 07:24:15;;;;;;;3.22;1.63;;;;;;;23.07;100.00;95298.81;4944615;28;20046;-86
2022/07/13 07:26:40;;;;;;;3.03;1.75;;;;;;;22.87;100.00;95293.91;4977810;28;20038;-84
2022/07/13 07:29:06;;;;;;;4.90;1.90;;;;;;;23.01;100.00;95293.69;4960835;28;20046;-83
2022/07/13 07:31:31;;;;;;;3.47;1.60;;;;;;;23.16;100.00;95300.31;4977704;28;20030;-86
2022/07/13 07:33:57;;;;;;;4.95;1.85;;;;;;;23.20;100.00;95294.34;4977819;28;20074;-84
2022/07/13 07:36:22;;;;;;;3.97;1.80;;;;;;;23.01;100.00;95296.34;4977977;28;20085;-85
2022/07/13 07:38:48;;;;;;;4.72;1.42;;;;;;;23.48;100.00;95296.53;4977919;28;20046;-85
2022/07/13 07:41:13;;;;;;;5.95;2.38;;;;;;;23.49;97.36;95296.19;4960342;28;20054;-84
2022/07/13 07:43:39;;;;;;;3.88;1.80;;;;;;;23.63;95.46;95298.59;4960525;28;20441;-85
2022/07/13 07:46:04;;;;;;;2.85;1.70;;;;;;;23.51;98.25;95299.31;4960371;28;20114;-85
2022/07/13 07:48:30;;;;;;;5.78;2.10;;;;;;;23.04;97.04;95297.59;4960381;28;20031;-85
2022/07/13 07:50:56;;;;;;;5.50;1.60;;;;;;;23.45;95.98;95292.59;4977796;28;20042;-85
2022/07/13 07:53:21;;;;;;;2.75;1.30;;;;;;;23.58;90.23;95291.56;4977321;28;20042;-85
2022/07/13 07:55:47;;;;;;;4.50;2.05;;;;;;;23.62;89.98;95301.59;4977538;28;20042;-84
2022/07/13 07:58:13;;;;;;;6.43;1.88;;;;;;;23.99;93.53;95289.09;4977533;28;20113;-84
2022/07/13 08:00:40;;;;;;;5.07;1.48;;;;;;;23.73;86.76;95297.41;4977723;28;20038;-84
2022/07/13 08:03:06;;;;;;;5.53;1.50;;;;;;;23.57;87.53;95295.34;4959891;28;20496;-85
2022/07/13 08:05:32;;;;;;;3.33;1.40;;;;;;;23.85;87.26;95297.44;4977250;28;20038;-85
2022/07/13 08:07:58;;;;;;;3.63;1.40;;;;;;;24.16;90.19;95295.41;4944328;28;20392;-85
2022/07/13 08:10:23;;;;;;;4.03;1.45;;;;;;;24.21;87.27;95286.38;4977570;28;20351;-86
2022/07/13 08:12:49;;;;;;;3.88;1.50;;;;;;;24.05;81.98;95288.94;4959782;28;20038;-85
2022/07/13 08:15:14;;;;;;;3.53;1.40;;;;;;;24.01;77.94;95292.22;4973965;28;20022;-84
2022/07/13 08:17:40;;;;;;;3.88;1.50;;;;;;;23.58;80.09;95278.19;5000635;28;20038;-85
2022/07/13 08:20:07;;;;;;;2.65;1.50;;;;;;;24.11;82.15;95290.28;4983364;28;20038;-85
2022/07/13 08:22:32;;;;;;;2.67;1.52;;;;;;;24.50;75.22;95281.94;4983201;28;20041;-85
2022/07/13 08:24:58;;;;;;;3.20;1.40;;;;;;;24.51;73.18;95283.50;4966915;28;20030;-86
2022/07/13 08:27:23;;;;;;;5.05;1.38;;;;;;;24.38;72.81;95280.06;5000303;28;20037;-86
2022/07/13 08:29:48;;;;;;;3.20;1.25;;;;;;;24.49;73.25;95272.34;5000466;28;20369;-84
2022/07/13 08:32:14;;;;;;;5.65;1.33;;;;;;;24.65;76.88;95278.59;4982836;28;20044;-86
2022/07/13 08:40:09;;;;;;;2.30;1.30;;;;;;;24.87;73.96;95265.09;4985248;28;20089;-87
2022/07/13 08:42:35;;;;;;;97.75;46.85;;;;;;;24.79;72.13;95264.91;5000093;28;20026;-87
2022/07/13 08:45:02;;;;;;;3.70;1.35;;;;;;;24.83;73.14;95251.63;4983072;28;20038;-84
2022/07/13 08:47:29;;;;;;;2.22;1.30;;;;;;;24.95;70.43;95258.84;4982590;28;20026;-84
2022/07/13 08:49:57;;;;;;;2.60;1.30;;;;;;;25.27;70.13;95257.09;4982832;28;20424;-85
2022/07/13 08:52:25;;;;;;;3.85;1.20;;;;;;;25.14;67.36;95263.59;4982636;28;20027;-84
2022/07/13 08:54:52;;;;;;;3.95;1.30;;;;;;;24.70;66.37;95262.31;4982401;28;20022;-85
2022/07/13 08:57:19;;;;;;;2.13;1.08;;;;;;;25.27;66.25;95267.03;4982633;28;20039;-86
2022/07/13 08:59:45;;;;;;;1.33;1.05;;;;;;;25.51;69.02;95249.31;5000280;28;20037;-86
2022/07/13 09:02:10;;;;;;;2.58;1.00;;;;;;;25.39;63.18;95250.09;4999944;28;20030;-85
2022/07/13 09:04:36;;;;;;;2.75;1.27;;;;;;;25.06;64.33;95259.94;4981940;28;20034;-85
2022/07/13 09:07:01;;;;;;;1.77;1.30;;;;;;;25.12;67.00;95257.81;4982109;28;20037;-86
2022/07/13 09:09:38;;;;;;;1.73;1.13;;;;;;;25.31;64.45;95259.84;4999541;28;20093;-86
2022/07/13 09:12:24;;;;;;;3.13;1.25;;;;;;;25.52;63.85;95257.00;4992275;28;20451;-86
2022/07/13 09:14:58;;;;;;;2.67;1.10;;;;;;;25.60;61.63;95246.50;4979793;28;20039;-85
2022/07/13 09:17:37;;;;;;;1.63;1.00;;;;;;;25.58;61.49;95246.06;4976393;28;20038;-87
2022/07/13 09:20:12;;;;;;;6.25;1.20;;;;;;;25.83;63.96;95252.06;4999272;28;20030;-86
2022/07/13 09:22:48;;;;;;;4.28;1.08;;;;;;;25.85;65.14;95252.50;4999076;28;20038;-84
2022/07/13 09:25:41;;;;;;;3.60;1.00;;;;;;;25.31;59.71;95251.81;4999138;28;20080;-84
2022/07/13 09:28:09;;;;;;;1.25;0.80;;;;;;;25.93;59.83;95256.94;4981335;28;20053;-87
2022/07/13 09:30:36;;;;;;;4.03;1.10;;;;;;;25.39;59.72;95244.75;4966339;28;20036;-87
2022/07/13 09:33:02;;;;;;;3.00;1.10;;;;;;;25.72;60.09;95249.13;4998292;28;20065;-86
2022/07/13 09:35:41;;;;;;;1.10;1.00;;;;;;;26.18;61.62;95253.34;4965277;28;20033;-85
2022/07/13 09:38:07;;;;;;;2.75;1.00;;;;;;;26.19;59.41;95255.69;4999031;28;20084;-84
2022/07/13 09:40:33;;;;;;;1.90;0.90;;;;;;;26.51;57.87;95252.19;4999004;28;20038;-86
2022/07/13 09:48:26;;;;;;;2.78;0.90;;;;;;;26.62;56.02;95255.91;4998733;28;20081;-85
2022/07/13 09:50:54;;;;;;;1.40;0.90;;;;;;;26.70;54.36;95256.09;4981910;28;20034;-86
2022/07/13 09:53:27;;;;;;;2.20;0.98;;;;;;;26.59;54.18;95255.81;4981470;28;20053;-86
2022/07/13 09:55:53;;;;;;;2.85;0.80;;;;;;;26.58;54.17;95252.38;4998799;28;20347;-85
2022/07/13 09:58:26;;;;;;;2.10;1.08;;;;;;;26.86;53.00;95251.47;4981217;28;20034;-86
2022/07/13 10:00:53;;;;;;;1.10;0.90;;;;;;;26.74;49.88;95256.94;4977818;28;20117;-85
2022/07/13 10:03:20;;;;;;;1.23;0.90;;;;;;;27.02;50.42;95247.97;4961760;28;20026;-85
2022/07/13 10:05:45;;;;;;;2.38;0.98;;;;;;;26.77;51.09;95243.59;4994314;28;20077;-86
2022/07/13 10:08:11;;;;;;;3.08;0.90;;;;;;;27.05;49.74;95237.28;4987857;28;20399;-85
2022/07/13 10:10:37;;;;;;;3.50;1.10;;;;;;;26.78;49.27;95245.13;4964967;28;20058;-85
2022/07/13 10:13:05;;;;;;;1.02;0.93;;;;;;;26.56;49.62;95248.47;4997949;28;20030;-85
2022/07/13 10:15:31;;;;;;;2.35;1.08;;;;;;;26.34;49.44;95243.38;4981638;28;20037;-85
2022/07/13 10:17:58;;;;;;;3.33;1.00;;;;;;;26.25;49.07;95242.75;4998547;28;20030;-85
2022/07/13 10:20:25;;;;;;;2.72;1.00;;;;;;;26.83;49.21;95244.09;4981119;28;20034;-85
2022/07/13 10:22:51;;;;;;;1.95;1.05;;;;;;;26.98;51.07;95239.81;4980687;28;20030;-86
2022/07/13 10:25:17;;;;;;;2.50;1.27;;;;;;;27.33;52.56;95247.06;4964773;28;20034;-84
2022/07/13 10:27:43;;;;;;;1.10;0.93;;;;;;;27.66;49.33;95245.00;4980737;28;20030;-86
2022/07/13 10:30:17;;;;;;;1.73;1.08;;;;;;;27.49;49.56;95251.59;4981023;28;20038;-85
2022/07/13 10:32:43;;;;;;;1.30;0.90;;;;;;;27.38;46.79;95238.69;4998126;28;20030;-86
2022/07/13 10:35:10;;;;;;;2.47;1.00;;;;;;;27.46;48.92;95244.22;4980609;28;20089;-85
2022/07/13 10:38:01;;;;;;;3.05;1.13;;;;;;;27.05;48.80;95242.66;4980638;28;20332;-85
2022/07/13 10:40:30;;;;;;;2.70;1.20;;;;;;;26.78;49.53;95250.50;4997576;28;20078;-84
2022/07/13 10:43:05;;;;;;;4.80;1.30;;;;;;;27.29;50.00;95245.44;4980604;28;20109;-85
2022/07/13 10:45:34;;;;;;;2.38;1.00;;;;;;;27.33;48.31;95247.06;4997729;28;20031;-85
2022/07/13 10:48:00;;;;;;;3.40;1.00;;;;;;;27.37;50.39;95247.91;4980373;28;20439;-84
2022/07/13 10:50:46;;;;;;;3.05;1.10;;;;;;;27.71;50.74;95244.72;4980258;28;20034;-86
2022/07/13 10:53:11;;;;;;;3.75;1.08;;;;;;;27.42;48.58;95244.16;4982536;28;20335;-86
2022/07/13 10:55:45;;;;;;;3.22;0.90;;;;;;;27.39;50.26;95239.47;4964357;28;20026;-84
2022/07/13 10:58:30;;;;;;;1.42;1.00;;;;;;;26.65;48.90;95236.38;4980491;28;20077;-85
2022/07/13 11:00:56;;;;;;;1.55;0.80;;;;;;;27.21;50.54;95242.59;4996471;28;20035;-84
2022/07/13 11:03:27;;;;;;;2.25;1.00;;;;;;;27.70;51.05;95239.69;4979522;28;20120;-86
2022/07/13 11:06:25;;;;;;;2.03;0.80;;;;;;;27.62;49.13;95244.97;4980341;28;20037;-85
2022/07/13 11:09:14;;;;;;;2.75;1.00;;;;;;;28.19;49.06;95232.84;4965276;28;20317;-86
2022/07/13 11:11:47;;;;;;;6.32;0.90;;;;;;;28.42;50.22;95238.22;4961921;28;20030;-86
2022/07/13 11:14:40;;;;;;;1.25;0.80;;;;;;;27.87;48.30;95239.22;4960747;28;20057;-86
2022/07/13 11:17:27;;;;;;;2.53;1.17;;;;;;;27.77;47.83;95237.91;4977932;28;20054;-86
2022/07/13 11:19:56;;;;;;;1.35;1.00;;;;;;;27.84;49.22;95236.50;4961320;28;20117;-85
2022/07/13 11:22:22;;;;;;;2.35;0.98;;;;;;;27.98;48.44;95235.94;4960899;28;20035;-86
2022/07/13 11:25:15;;;;;;;3.50;1.02;;;;;;;28.29;47.41;95231.47;4960357;28;20065;-86
2022/07/13 11:27:44;;;;;;;1.15;0.95;;;;;;;27.96;47.13;95236.28;4962891;28;20043;-86
2022/07/13 11:30:10;;;;;;;1.13;1.00;;;;;;;27.85;48.62;95232.66;4961090;28;20035;-85
2022/07/13 11:32:35;;;;;;;2.30;0.93;;;;;;;27.89;48.91;95222.72;4960208;28;20098;-85
2022/07/13 11:35:01;;;;;;;1.83;0.95;;;;;;;28.43;46.54;95228.22;4977695;28;20027;-84
2022/07/13 11:37:26;;;;;;;1.25;0.88;;;;;;;28.21;46.14;95217.91;4960348;28;20097;-86